createdAt,value
2022-11-06T00:02:05.192Z,8.7
2022-11-06T00:07:12.566Z,8.7
2022-11-06T00:12:18.442Z,8.7
2022-11-06T00:17:24.719Z,8.7
2022-11-06T00:22:32.370Z,8.7
2022-11-06T00:27:44.837Z,8.6
2022-11-06T00:33:06.360Z,8.6
2022-11-06T00:38:11.651Z,8.5
2022-11-06T00:43:33.314Z,8.4
2022-11-06T00:48:54.996Z,8.4
2022-11-06T00:54:18.129Z,8.4
2022-11-06T00:59:40.576Z,8.3
2022-11-06T01:05:04.099Z,8.2
2022-11-06T01:10:25.659Z,8.1
2022-11-06T01:16:14.724Z,7.9
2022-11-06T01:21:37.079Z,7.8
2022-11-06T01:27:41.870Z,7.8
2022-11-06T01:33:04.254Z,7.8
2022-11-06T01:38:10.617Z,7.6
2022-11-06T01:43:32.105Z,7.4
2022-11-06T01:49:14.170Z,7.4
2022-11-06T01:54:36.077Z,7.3
2022-11-06T01:59:58.895Z,7.3
2022-11-06T02:05:22.438Z,7.2
2022-11-06T02:10:28.355Z,7.1
2022-11-06T02:16:06.029Z,7.1
2022-11-06T02:21:41.858Z,7.2
2022-11-06T02:27:18.767Z,7.3
2022-11-06T02:32:25.520Z,7.4
2022-11-06T02:38:02.735Z,7.6
2022-11-06T02:43:24.562Z,7.8
2022-11-06T02:49:01.741Z,7.9
2022-11-06T02:54:39.235Z,8.1
2022-11-06T03:00:01.678Z,8.3
2022-11-06T03:05:24.745Z,8.5
2022-11-06T03:10:47.341Z,8.6
2022-11-06T03:16:24.211Z,8.8
2022-11-06T03:22:01.310Z,8.9
2022-11-06T03:27:38.901Z,9.1
2022-11-06T03:32:51.717Z,9.2
2022-11-06T03:38:13.004Z,9.3
2022-11-06T03:43:50.151Z,9.3
2022-11-06T03:49:26.457Z,9.3
2022-11-06T03:55:02.903Z,9.4
2022-11-06T04:00:41.325Z,9.4
2022-11-06T04:06:04.139Z,9.5
2022-11-06T04:11:42.246Z,9.6
2022-11-06T04:17:03.492Z,9.7
2022-11-06T04:22:10.192Z,9.7
2022-11-06T04:27:47.767Z,9.8
2022-11-06T04:33:28.218Z,9.8
2022-11-06T04:38:33.444Z,9.8
2022-11-06T04:43:55.501Z,9.9
2022-11-06T04:49:01.715Z,9.9
2022-11-06T04:54:39.512Z,9.9
2022-11-06T05:00:25.923Z,10
2022-11-06T05:05:48.216Z,10.1
2022-11-06T05:11:29.197Z,10.2
2022-11-06T05:17:06.801Z,10.3
2022-11-06T05:22:44.562Z,10.4
2022-11-06T05:28:28.238Z,10.4
2022-11-06T05:34:05.330Z,10.6
2022-11-06T05:39:42.581Z,10.7
2022-11-06T05:45:19.368Z,10.8
2022-11-06T05:51:21.449Z,10.9
2022-11-06T05:57:00.526Z,11.1
2022-11-06T06:02:22.560Z,11.3
2022-11-06T06:07:59.689Z,11.5
2022-11-06T06:13:38.150Z,11.8
2022-11-06T06:19:22.201Z,12.1
2022-11-06T06:25:00.533Z,12.4
2022-11-06T06:30:29.149Z,12.8
2022-11-06T06:36:06.513Z,13.2
2022-11-06T06:41:34.066Z,13.6
2022-11-06T06:47:18.831Z,13.9
2022-11-06T06:52:56.591Z,14.3
2022-11-06T06:58:34.833Z,14.8
2022-11-06T07:04:19.951Z,15.3
2022-11-06T07:09:42.907Z,16.1
2022-11-06T07:15:21.563Z,16.9
2022-11-06T07:20:43.494Z,17.4
2022-11-06T07:26:14.483Z,17.6
2022-11-06T07:31:37.086Z,17.6
2022-11-06T07:36:58.753Z,17.6
2022-11-06T07:42:21.242Z,17.6
2022-11-06T07:47:33.655Z,17.8
2022-11-06T07:53:01.935Z,18.1
2022-11-06T07:58:23.989Z,18.3
2022-11-06T08:08:59.148Z,19
2022-11-06T08:14:21.249Z,19.3
2022-11-06T08:19:47.384Z,19.6
2022-11-06T08:25:17.296Z,19.6
2022-11-06T08:30:40.160Z,19.6
2022-11-06T08:36:04.098Z,19.8
2022-11-06T08:41:12.648Z,19.7
2022-11-06T08:46:38.512Z,19.6
2022-11-06T08:52:02.379Z,19.6
2022-11-06T08:57:43.301Z,19.5
2022-11-06T09:03:30.008Z,19.3
2022-11-06T09:09:14.625Z,19.1
2022-11-06T09:14:59.945Z,19
2022-11-06T09:20:27.996Z,19.1
2022-11-06T09:26:18.787Z,19.6
2022-11-06T09:31:44.503Z,20.2
2022-11-06T09:37:29.707Z,20.3
2022-11-06T09:43:15.757Z,20.2
2022-11-06T09:49:26.653Z,20.3
2022-11-06T09:55:14.943Z,20.1
2022-11-06T10:00:54.463Z,20.1
2022-11-06T10:06:40.896Z,19.9
2022-11-06T10:12:18.642Z,19.9
2022-11-06T10:17:56.225Z,19.7
2022-11-06T10:23:36.335Z,19.6
2022-11-06T10:29:14.010Z,19.5
2022-11-06T10:34:51.844Z,19.4
2022-11-06T10:40:33.458Z,19.5
2022-11-06T10:46:10.075Z,19.7
2022-11-06T10:51:53.145Z,20.1
2022-11-06T10:57:36.464Z,20.5
2022-11-06T11:03:15.900Z,20.5
2022-11-06T11:08:44.056Z,20.4
2022-11-06T11:14:21.022Z,20.4
2022-11-06T11:19:44.068Z,20.3
2022-11-06T11:25:09.977Z,20.1
2022-11-06T11:30:34.883Z,20
2022-11-06T11:36:03.204Z,19.9
2022-11-06T11:41:26.670Z,19.9
2022-11-06T11:47:09.033Z,19.9
2022-11-06T11:52:46.626Z,19.9
2022-11-06T11:59:04.193Z,20.3
2022-11-06T12:04:46.497Z,20.6
2022-11-06T12:15:46.705Z,21.5
2022-11-06T12:21:16.677Z,21.7
2022-11-06T12:26:54.090Z,21.8
2022-11-06T12:32:31.629Z,21.7
2022-11-06T12:38:38.501Z,21.5
2022-11-06T12:44:21.828Z,21.4
2022-11-06T12:50:00.918Z,21.3
2022-11-06T13:00:48.367Z,21.1
2022-11-06T13:06:13.285Z,20.8
2022-11-06T13:11:51.831Z,20.6
2022-11-06T13:17:30.145Z,20.5
2022-11-06T13:23:08.820Z,20.3
2022-11-06T13:28:48.795Z,20
2022-11-06T13:34:26.130Z,19.8
2022-11-06T13:40:03.453Z,19.4
2022-11-06T13:45:25.799Z,19.1
2022-11-06T13:55:45.828Z,18.4
2022-11-06T14:01:25.912Z,18.1
2022-11-06T14:07:11.087Z,17.8
2022-11-06T14:12:49.328Z,17.6
2022-11-06T14:18:26.623Z,17.4
2022-11-06T14:24:05.498Z,17.3
2022-11-06T14:29:48.934Z,17.1
2022-11-06T14:35:46.790Z,16.9
2022-11-06T14:41:29.048Z,16.6
2022-11-06T14:47:13.093Z,16.3
2022-11-06T14:52:51.865Z,16
2022-11-06T14:58:32.131Z,15.8
2022-11-06T15:04:11.499Z,15.5
2022-11-06T15:10:22.340Z,15.3
2022-11-06T15:16:10.348Z,15.1
2022-11-06T15:21:31.373Z,14.9
2022-11-06T15:26:23.295Z,14.7
2022-11-06T15:32:01.425Z,14.5
2022-11-06T15:37:23.142Z,14.3
2022-11-06T15:42:52.560Z,14.2
2022-11-06T15:48:30.375Z,14
2022-11-06T15:54:14.652Z,13.9
2022-11-06T15:59:59.897Z,13.8
2022-11-06T16:05:44.221Z,13.6
2022-11-06T16:11:28.768Z,13.5
2022-11-06T16:17:06.259Z,13.4
2022-11-06T16:22:48.512Z,13.1
2022-11-06T16:28:01.130Z,13
2022-11-06T16:32:59.241Z,12.9
2022-11-06T16:39:12.554Z,12.7
2022-11-06T16:44:53.550Z,12.5
2022-11-06T16:50:15.848Z,12.4
2022-11-06T16:55:38.980Z,12.3
2022-11-06T17:01:20.573Z,12.2
2022-11-06T17:06:44.446Z,12.1
2022-11-06T17:12:06.800Z,12
2022-11-06T17:17:29.048Z,11.9
2022-11-06T17:23:06.743Z,11.8
2022-11-06T17:28:53.387Z,11.8
2022-11-06T17:34:15.798Z,11.8
2022-11-06T17:39:38.449Z,11.7
2022-11-06T17:45:00.821Z,11.7
2022-11-06T17:50:28.690Z,11.6
2022-11-06T17:55:51.581Z,11.6
2022-11-06T18:01:19.601Z,11.5
2022-11-06T18:07:33.669Z,11.5
2022-11-06T18:13:11.405Z,11.4
2022-11-06T18:18:33.519Z,11.4
2022-11-06T18:23:24.567Z,11.4
2022-11-06T18:28:20.398Z,11.4
2022-11-06T18:33:41.665Z,11.4
2022-11-06T18:39:26.035Z,11.4
2022-11-06T18:44:51.608Z,11.4
2022-11-06T18:50:32.515Z,11.3
2022-11-06T18:57:00.029Z,11.3
2022-11-06T19:02:46.614Z,11.3
2022-11-06T19:08:29.540Z,11.2
2022-11-06T19:13:52.072Z,11.2
2022-11-06T19:19:42.294Z,11.1
2022-11-06T19:25:03.792Z,11.1
2022-11-06T19:31:11.231Z,11.1
2022-11-06T19:36:50.646Z,11
2022-11-06T19:42:11.677Z,11
2022-11-06T19:47:55.957Z,10.9
2022-11-06T19:54:44.826Z,10.9
2022-11-06T20:01:26.839Z,10.7
2022-11-06T20:06:57.213Z,10.6
2022-11-06T20:12:19.857Z,10.4
2022-11-06T20:17:59.451Z,10.2
2022-11-06T20:23:28.472Z,10.1
2022-11-06T20:28:56.118Z,10
2022-11-06T20:34:37.072Z,9.9
2022-11-06T20:40:15.650Z,9.8
2022-11-06T20:45:55.916Z,9.8
2022-11-06T20:51:19.849Z,9.8
2022-11-06T20:57:39.691Z,9.7
2022-11-06T21:03:03.027Z,9.6
2022-11-06T21:08:09.669Z,9.6
2022-11-06T21:13:32.729Z,9.6
2022-11-06T21:18:54.470Z,9.6
2022-11-06T21:24:37.488Z,9.6
2022-11-06T21:30:02.398Z,9.6
2022-11-06T21:35:32.041Z,9.6
2022-11-06T21:41:05.417Z,9.7
2022-11-06T21:46:12.671Z,9.8
2022-11-06T21:51:45.744Z,9.8
2022-11-06T21:57:23.644Z,9.8
2022-11-06T22:02:34.733Z,9.8
2022-11-06T22:08:13.349Z,9.8
2022-11-06T22:13:56.725Z,9.8
2022-11-06T22:19:19.480Z,9.7
2022-11-06T22:32:15.106Z,9.4
2022-11-06T22:37:22.412Z,9.4
2022-11-06T22:43:05.939Z,9.2
2022-11-06T22:48:43.755Z,9.1
2022-11-06T22:54:06.143Z,8.9
2022-11-06T22:59:43.751Z,8.9
2022-11-06T23:05:25.355Z,8.7
2022-11-06T23:11:05.218Z,8.6
2022-11-06T23:16:44.438Z,8.5
2022-11-06T23:21:50.503Z,8.3
2022-11-06T23:27:13.917Z,8.3
2022-11-06T23:32:38.355Z,8.1
2022-11-06T23:37:52.642Z,7.9
2022-11-06T23:42:59.869Z,7.8
2022-11-06T23:48:25.171Z,7.8
2022-11-06T23:54:01.992Z,7.6
2022-11-06T23:59:08.799Z,7.5
